createdAt,value
2023-01-19T00:04:11.490Z,1.70
2023-01-19T00:09:14.214Z,1.60
2023-01-19T00:14:16.796Z,1.40
2023-01-19T00:19:19.318Z,1.30
2023-01-19T00:24:22.885Z,1.30
2023-01-19T00:29:25.588Z,1.40
2023-01-19T00:34:37.117Z,1.60
2023-01-19T00:39:39.691Z,1.70
2023-01-19T00:44:42.179Z,1.60
2023-01-19T00:49:44.701Z,1.60
2023-01-19T00:54:47.178Z,1.60
2023-01-19T00:59:49.783Z,1.70
2023-01-19T01:04:56.814Z,1.90
2023-01-19T01:09:59.338Z,1.90
2023-01-19T01:15:01.981Z,1.90
2023-01-19T01:20:05.192Z,2.00
2023-01-19T01:25:08.118Z,2.00
2023-01-19T01:30:12.949Z,2.00
2023-01-19T01:35:16.484Z,2.20
2023-01-19T01:40:19.490Z,2.20
2023-01-19T01:45:32.902Z,2.30
2023-01-19T01:51:00.640Z,2.30
2023-01-19T01:56:09.218Z,2.30
2023-01-19T02:01:30.666Z,2.20
2023-01-19T02:06:34.546Z,2.10
2023-01-19T02:11:55.864Z,2.10
2023-01-19T02:16:58.648Z,2.10
2023-01-19T02:22:27.407Z,2.10
2023-01-19T02:27:30.222Z,2.20
2023-01-19T02:32:32.748Z,2.10
2023-01-19T02:37:40.123Z,2.00
2023-01-19T02:42:44.540Z,2.10
2023-01-19T02:47:49.979Z,2.10
2023-01-19T02:52:58.406Z,2.20
2023-01-19T02:58:27.534Z,2.20
2023-01-19T03:03:47.999Z,2.10
2023-01-19T03:09:01.246Z,2.10
2023-01-19T03:14:12.071Z,2.00
2023-01-19T03:19:28.577Z,1.80
2023-01-19T03:24:37.111Z,1.70
2023-01-19T03:29:45.522Z,1.60
2023-01-19T03:34:48.926Z,1.70
2023-01-19T03:39:51.491Z,1.70
2023-01-19T03:44:56.594Z,1.70
2023-01-19T03:50:02.331Z,1.70
2023-01-19T03:55:06.213Z,1.90
2023-01-19T04:00:09.531Z,1.90
2023-01-19T04:05:14.608Z,1.80
2023-01-19T04:10:18.716Z,1.80
2023-01-19T04:15:21.278Z,1.90
2023-01-19T04:20:24.112Z,1.70
2023-01-19T04:25:27.140Z,1.80
2023-01-19T04:30:29.659Z,1.90
2023-01-19T04:35:34.313Z,2.00
2023-01-19T04:40:36.852Z,2.10
2023-01-19T04:45:39.547Z,2.10
2023-01-19T04:50:42.108Z,2.10
2023-01-19T04:55:44.810Z,2.10
2023-01-19T05:00:47.682Z,2.20
2023-01-19T05:05:50.174Z,2.20
2023-01-19T05:10:52.724Z,2.00
2023-01-19T05:15:55.443Z,2.10
2023-01-19T05:20:58.059Z,2.10
2023-01-19T05:26:02.083Z,2.10
2023-01-19T05:31:05.798Z,1.90
2023-01-19T05:36:08.507Z,1.80
2023-01-19T05:41:11.095Z,1.90
2023-01-19T05:46:13.696Z,1.90
2023-01-19T05:51:16.375Z,2.00
2023-01-19T05:56:18.849Z,2.10
2023-01-19T06:01:21.728Z,2.10
2023-01-19T06:06:24.251Z,2.10
2023-01-19T06:11:26.889Z,2.20
2023-01-19T06:16:29.576Z,2.10
2023-01-19T06:21:32.582Z,2.10
2023-01-19T06:26:35.218Z,2.10
2023-01-19T06:31:38.194Z,2.00
2023-01-19T06:36:40.828Z,1.90
2023-01-19T06:41:43.475Z,1.90
2023-01-19T06:46:46.109Z,1.80
2023-01-19T06:51:48.608Z,1.80
2023-01-19T06:56:51.805Z,1.80
2023-01-19T07:01:56.191Z,1.60
2023-01-19T07:06:58.844Z,1.50
2023-01-19T07:12:01.587Z,1.60
2023-01-19T07:17:04.129Z,1.60
2023-01-19T07:22:06.810Z,1.50
2023-01-19T07:27:11.579Z,1.60
2023-01-19T07:32:14.825Z,1.50
2023-01-19T07:37:17.446Z,1.60
2023-01-19T07:42:20.038Z,1.70
2023-01-19T07:47:22.949Z,1.60
2023-01-19T07:52:25.424Z,1.60
2023-01-19T07:57:29.816Z,1.70
2023-01-19T08:02:34.060Z,1.70
2023-01-19T08:07:36.825Z,1.80
2023-01-19T08:12:39.474Z,1.80
2023-01-19T08:17:41.995Z,1.80
2023-01-19T08:22:47.560Z,1.80
2023-01-19T08:27:50.198Z,1.80
2023-01-19T08:32:58.094Z,1.70
2023-01-19T08:38:01.782Z,1.70
2023-01-19T08:43:07.912Z,1.70
2023-01-19T08:48:10.615Z,1.60
2023-01-19T08:53:13.522Z,1.70
2023-01-19T08:58:17.495Z,1.90
2023-01-19T09:03:22.678Z,2.10
2023-01-19T09:08:25.290Z,2.30
2023-01-19T09:13:27.966Z,2.30
2023-01-19T09:18:30.645Z,2.40
2023-01-19T09:23:33.221Z,2.60
2023-01-19T09:28:37.447Z,2.90
2023-01-19T09:33:40.158Z,3.00
2023-01-19T09:38:42.821Z,3.30
2023-01-19T09:43:51.314Z,3.40
2023-01-19T09:48:57.794Z,3.70
2023-01-19T09:54:20.752Z,3.70
2023-01-19T09:59:30.225Z,3.40
2023-01-19T10:04:43.933Z,3.40
2023-01-19T10:10:04.931Z,3.50
2023-01-19T10:15:13.952Z,3.50
2023-01-19T10:20:45.079Z,3.50
2023-01-19T10:25:47.896Z,3.40
2023-01-19T10:30:51.649Z,3.50
2023-01-19T10:35:54.369Z,3.60
2023-01-19T10:41:17.229Z,3.50
2023-01-19T10:46:32.024Z,3.40
2023-01-19T10:51:45.166Z,3.10
2023-01-19T10:57:03.867Z,3.30
2023-01-19T11:02:29.041Z,3.30
2023-01-19T11:07:33.648Z,3.10
2023-01-19T11:12:41.951Z,3.00
2023-01-19T11:17:46.931Z,2.90
2023-01-19T11:23:04.529Z,2.70
2023-01-19T11:28:29.943Z,2.70
2023-01-19T11:33:43.664Z,2.60
2023-01-19T11:38:50.361Z,2.60
2023-01-19T11:44:00.360Z,2.70
2023-01-19T11:49:08.273Z,2.80
2023-01-19T11:54:21.197Z,2.90
2023-01-19T11:59:25.158Z,3.10
2023-01-19T12:04:34.758Z,3.10
2023-01-19T12:09:49.013Z,3.40
2023-01-19T12:15:22.780Z,3.50
2023-01-19T12:20:40.443Z,3.40
2023-01-19T12:25:43.023Z,3.20
2023-01-19T12:30:45.747Z,3.10
2023-01-19T12:36:04.018Z,3.20
2023-01-19T12:41:17.202Z,3.30
2023-01-19T12:46:25.967Z,3.10
2023-01-19T12:51:28.586Z,3.10
2023-01-19T12:56:34.375Z,3.00
2023-01-19T13:01:37.131Z,3.00
2023-01-19T13:06:48.995Z,3.00
2023-01-19T13:12:25.306Z,3.10
2023-01-19T13:17:45.409Z,3.40
2023-01-19T13:22:50.732Z,3.30
2023-01-19T13:27:53.999Z,3.20
2023-01-19T13:33:03.478Z,3.20
2023-01-19T13:38:07.583Z,3.10
2023-01-19T13:43:27.946Z,3.10
2023-01-19T13:48:32.362Z,2.90
2023-01-19T13:53:35.588Z,2.80
2023-01-19T13:58:38.185Z,2.80
2023-01-19T14:03:40.992Z,2.80
2023-01-19T14:08:43.593Z,2.70
2023-01-19T14:13:46.641Z,2.60
2023-01-19T14:19:00.299Z,2.50
2023-01-19T14:24:07.670Z,2.40
2023-01-19T14:29:10.277Z,2.30
2023-01-19T14:34:41.353Z,2.40
2023-01-19T14:39:57.011Z,2.40
2023-01-19T14:45:07.999Z,2.20
2023-01-19T14:50:54.195Z,2.20
2023-01-19T14:56:06.280Z,2.00
2023-01-19T15:01:09.317Z,2.00
2023-01-19T15:06:18.075Z,2.00
2023-01-19T15:11:26.886Z,2.00
2023-01-19T15:16:32.065Z,1.90
2023-01-19T15:21:37.611Z,1.80
2023-01-19T15:26:42.901Z,1.80
2023-01-19T15:31:47.330Z,1.80
2023-01-19T15:36:50.053Z,1.70
2023-01-19T15:41:53.447Z,1.80
2023-01-19T15:46:57.442Z,1.70
2023-01-19T15:51:59.986Z,1.60
2023-01-19T15:57:03.766Z,1.60
2023-01-19T16:02:06.704Z,1.60
2023-01-19T16:07:09.445Z,4.40
2023-01-19T16:12:12.031Z,1.60
2023-01-19T16:17:14.779Z,1.60
2023-01-19T16:22:17.349Z,1.60
2023-01-19T16:27:19.994Z,1.50
2023-01-19T16:32:22.916Z,1.50
2023-01-19T16:37:27.967Z,1.50
2023-01-19T16:42:30.689Z,1.50
2023-01-19T16:47:33.307Z,1.50
2023-01-19T16:52:35.952Z,1.50
2023-01-19T16:57:41.656Z,1.40
2023-01-19T17:02:44.351Z,1.40
2023-01-19T17:07:47.195Z,1.40
2023-01-19T17:12:49.756Z,1.40
2023-01-19T17:17:52.265Z,1.50
2023-01-19T17:22:56.148Z,1.40
2023-01-19T17:28:01.329Z,1.40
2023-01-19T17:33:03.952Z,1.40
2023-01-19T17:38:06.631Z,1.40
2023-01-19T17:43:09.247Z,1.40
2023-01-19T17:48:13.393Z,1.40
2023-01-19T17:53:16.056Z,2.40
2023-01-19T17:58:18.692Z,1.50
2023-01-19T18:03:21.354Z,1.50
2023-01-19T18:08:24.085Z,1.50
2023-01-19T18:13:27.444Z,1.40
2023-01-19T18:18:31.086Z,1.40
2023-01-19T18:23:33.891Z,1.50
2023-01-19T18:28:36.736Z,1.50
2023-01-19T18:33:40.272Z,1.60
2023-01-19T18:38:43.309Z,1.50
2023-01-19T18:43:46.873Z,1.50
2023-01-19T18:48:49.680Z,1.50
2023-01-19T18:53:52.583Z,1.50
2023-01-19T18:58:55.328Z,1.50
2023-01-19T19:03:58.008Z,1.60
2023-01-19T19:09:00.633Z,1.60
2023-01-19T19:14:03.404Z,1.50
2023-01-19T19:19:06.077Z,1.40
2023-01-19T19:24:09.141Z,1.40
2023-01-19T19:29:12.374Z,1.40
2023-01-19T19:34:15.296Z,1.40
2023-01-19T19:39:33.474Z,1.40
2023-01-19T19:44:36.024Z,1.30
2023-01-19T19:49:38.649Z,1.30
2023-01-19T19:54:41.512Z,1.20
2023-01-19T19:59:44.135Z,1.20
2023-01-19T20:04:46.670Z,1.20
2023-01-19T20:09:51.332Z,1.30
2023-01-19T20:14:54.022Z,1.20
2023-01-19T20:19:56.832Z,1.20
2023-01-19T20:24:59.668Z,3.00
2023-01-19T20:30:02.391Z,1.30
2023-01-19T20:35:05.878Z,1.30
2023-01-19T20:40:09.347Z,1.20
2023-01-19T20:45:12.233Z,1.30
2023-01-19T20:50:15.074Z,1.40
2023-01-19T20:55:18.032Z,1.40
2023-01-19T21:00:20.890Z,1.40
2023-01-19T21:05:24.039Z,1.40
2023-01-19T21:10:26.570Z,1.50
2023-01-19T21:15:29.064Z,1.50
2023-01-19T21:20:31.835Z,1.50
2023-01-19T21:25:34.803Z,1.50
2023-01-19T21:30:37.467Z,1.50
2023-01-19T21:35:40.334Z,1.50
2023-01-19T21:40:43.064Z,1.50
2023-01-19T21:45:46.765Z,1.50
2023-01-19T21:50:57.614Z,1.60
2023-01-19T21:56:00.439Z,1.60
2023-01-19T22:01:11.075Z,1.70
2023-01-19T22:06:14.763Z,1.60
2023-01-19T22:11:19.690Z,1.60
2023-01-19T22:16:23.206Z,1.60
2023-01-19T22:21:31.435Z,1.60
2023-01-19T22:26:34.783Z,1.60
2023-01-19T22:31:39.202Z,1.60
2023-01-19T22:36:41.856Z,1.50
2023-01-19T22:41:46.327Z,1.50
2023-01-19T22:46:50.862Z,1.40
2023-01-19T22:51:54.398Z,1.40
2023-01-19T22:56:56.917Z,1.30
2023-01-19T23:01:59.624Z,1.30
2023-01-19T23:07:02.214Z,1.20
2023-01-19T23:12:05.268Z,1.20
2023-01-19T23:17:08.029Z,1.20
2023-01-19T23:22:10.724Z,1.20
2023-01-19T23:27:13.320Z,1.10
2023-01-19T23:32:15.903Z,1.10
2023-01-19T23:37:18.411Z,1.00
2023-01-19T23:42:21.068Z,1.00
2023-01-19T23:47:24.052Z,0.90
2023-01-19T23:52:26.600Z,0.90
2023-01-19T23:57:30.129Z,0.80
